createdAt,value
2022-09-07T00:01:00.795Z,27.70
2022-09-07T00:02:02.565Z,27.81
2022-09-07T00:03:05.124Z,27.65
2022-09-07T00:04:08.143Z,27.63
2022-09-07T00:05:09.975Z,27.94
2022-09-07T00:06:13.399Z,27.90
2022-09-07T00:07:15.367Z,27.34
2022-09-07T00:08:19.999Z,27.69
2022-09-07T00:09:21.838Z,27.43
2022-09-07T00:10:24.555Z,27.60
2022-09-07T00:11:26.367Z,27.66
2022-09-07T00:12:28.239Z,27.50
2022-09-07T00:13:33.368Z,27.41
2022-09-07T00:14:35.359Z,27.43
2022-09-07T00:15:40.514Z,27.22
2022-09-07T00:16:43.263Z,27.57
2022-09-07T00:17:45.250Z,27.82
2022-09-07T00:18:47.930Z,27.31
2022-09-07T00:19:49.854Z,27.66
2022-09-07T00:21:06.373Z,27.75
2022-09-07T00:22:08.403Z,27.16
2022-09-07T00:23:10.514Z,27.25
2022-09-07T00:24:13.197Z,27.58
2022-09-07T00:25:15.111Z,27.30
2022-09-07T00:26:20.573Z,27.40
2022-09-07T00:27:22.375Z,27.39
2022-09-07T00:28:24.164Z,27.33
2022-09-07T00:29:26.086Z,27.62
2022-09-07T00:30:27.955Z,27.30
2022-09-07T00:31:31.138Z,27.97
2022-09-07T00:32:33.207Z,27.33
2022-09-07T00:33:34.966Z,27.31
2022-09-07T00:34:36.921Z,27.15
2022-09-07T00:35:42.433Z,27.62
2022-09-07T00:36:44.273Z,27.83
2022-09-07T00:37:46.246Z,27.42
2022-09-07T00:38:48.546Z,27.41
2022-09-07T00:39:50.699Z,27.46
2022-09-07T00:40:53.427Z,27.25
2022-09-07T00:41:55.268Z,27.35
2022-09-07T00:42:57.043Z,27.42
2022-09-07T00:44:37.078Z,27.78
2022-09-07T00:45:38.895Z,27.22
2022-09-07T00:46:40.710Z,27.49
2022-09-07T00:47:51.778Z,27.56
2022-09-07T00:48:57.882Z,28.14
2022-09-07T00:50:05.730Z,27.76
2022-09-07T00:51:11.991Z,27.78
2022-09-07T00:52:16.161Z,27.34
2022-09-07T00:53:23.639Z,27.56
2022-09-07T00:54:31.023Z,27.21
2022-09-07T00:55:35.704Z,27.34
2022-09-07T00:56:42.106Z,27.48
2022-09-07T00:57:49.786Z,27.24
2022-09-07T00:58:53.192Z,27.69
2022-09-07T00:59:57.814Z,27.93
2022-09-07T01:00:59.727Z,27.87
2022-09-07T01:02:01.814Z,27.89
2022-09-07T01:03:05.621Z,27.82
2022-09-07T01:04:08.666Z,27.63
2022-09-07T01:05:33.291Z,27.76
2022-09-07T01:06:38.138Z,27.16
2022-09-07T01:07:40.043Z,27.33
2022-09-07T01:08:43.950Z,27.42
2022-09-07T01:09:47.366Z,27.69
2022-09-07T01:10:49.343Z,27.22
2022-09-07T01:11:53.698Z,27.88
2022-09-07T01:12:55.652Z,27.97
2022-09-07T01:13:58.407Z,27.71
2022-09-07T01:15:00.767Z,27.23
2022-09-07T01:16:17.349Z,27.69
2022-09-07T01:17:46.102Z,27.75
2022-09-07T01:19:06.383Z,27.57
2022-09-07T01:20:40.352Z,27.30
2022-09-07T01:21:59.838Z,27.54
2022-09-07T01:23:38.828Z,27.67
2022-09-07T01:25:02.303Z,27.67
2022-09-07T01:26:16.866Z,27.00
2022-09-07T01:27:27.609Z,27.58
2022-09-07T01:28:32.522Z,27.32
2022-09-07T01:29:52.588Z,27.88
2022-09-07T01:30:54.416Z,27.35
2022-09-07T01:32:40.620Z,27.06
2022-09-07T01:34:11.495Z,26.96
2022-09-07T01:35:32.590Z,27.66
2022-09-07T01:36:47.643Z,27.22
2022-09-07T01:38:01.531Z,27.66
2022-09-07T01:39:05.675Z,27.71
2022-09-07T01:40:18.780Z,27.46
2022-09-07T01:41:56.096Z,27.77
2022-09-07T01:43:07.027Z,27.74
2022-09-07T01:44:27.283Z,27.54
2022-09-07T01:45:33.830Z,27.50
2022-09-07T01:46:52.990Z,27.46
2022-09-07T01:47:58.294Z,27.11
2022-09-07T01:49:10.439Z,27.10
2022-09-07T01:50:28.480Z,27.12
2022-09-07T01:51:34.864Z,27.38
2022-09-07T01:52:53.202Z,27.23
2022-09-07T01:54:12.834Z,27.84
2022-09-07T01:55:31.938Z,27.41
2022-09-07T01:56:39.539Z,27.08
2022-09-07T01:57:52.464Z,27.53
2022-09-07T01:59:04.550Z,27.75
2022-09-07T02:00:12.670Z,27.27
2022-09-07T02:01:17.046Z,27.96
2022-09-07T02:02:24.606Z,27.50
2022-09-07T02:03:37.515Z,27.47
2022-09-07T02:04:46.190Z,27.55
2022-09-07T02:06:06.486Z,27.08
2022-09-07T02:07:35.882Z,28.00
2022-09-07T02:09:03.398Z,27.54
2022-09-07T02:10:16.560Z,27.13
2022-09-07T02:11:30.438Z,27.40
2022-09-07T02:12:47.538Z,27.54
2022-09-07T02:14:01.434Z,27.34
2022-09-07T02:15:07.431Z,27.12
2022-09-07T02:16:17.057Z,27.91
2022-09-07T02:17:48.134Z,28.12
2022-09-07T02:18:57.012Z,27.71
2022-09-07T02:20:06.482Z,27.40
2022-09-07T02:21:09.345Z,27.73
2022-09-07T02:22:18.702Z,27.54
2022-09-07T02:23:25.072Z,27.49
2022-09-07T02:24:41.036Z,27.51
2022-09-07T02:25:52.122Z,27.62
2022-09-07T02:26:56.038Z,27.44
2022-09-07T02:28:06.559Z,27.99
2022-09-07T02:29:08.739Z,27.38
2022-09-07T02:30:11.137Z,27.76
2022-09-07T02:31:13.050Z,28.00
2022-09-07T02:32:14.960Z,27.38
2022-09-07T02:33:17.090Z,27.30
2022-09-07T02:34:19.934Z,27.43
2022-09-07T02:35:22.152Z,27.73
2022-09-07T02:37:29.428Z,27.30
2022-09-07T02:38:32.903Z,27.62
2022-09-07T02:39:35.137Z,28.05
2022-09-07T02:41:41.572Z,27.99
2022-09-07T02:42:44.795Z,27.86
2022-09-07T02:43:46.563Z,27.66
2022-09-07T02:44:48.399Z,27.41
2022-09-07T02:46:15.353Z,27.71
2022-09-07T02:47:38.677Z,27.63
2022-09-07T02:48:59.015Z,27.51
2022-09-07T02:50:16.371Z,27.10
2022-09-07T02:51:39.537Z,27.64
2022-09-07T02:53:18.185Z,26.86
2022-09-07T02:54:43.483Z,27.42
2022-09-07T02:56:06.300Z,27.14
2022-09-07T02:57:31.992Z,27.35
2022-09-07T02:58:45.255Z,26.92
2022-09-07T02:59:52.914Z,27.94
2022-09-07T03:01:30.330Z,27.30
2022-09-07T03:02:51.167Z,27.17
2022-09-07T03:04:03.062Z,27.71
2022-09-07T03:05:22.964Z,27.81
2022-09-07T03:06:37.186Z,27.59
2022-09-07T03:07:51.627Z,27.19
2022-09-07T03:08:56.097Z,27.56
2022-09-07T03:10:00.630Z,27.50
2022-09-07T03:11:04.535Z,27.24
2022-09-07T03:12:07.850Z,27.56
2022-09-07T03:13:20.216Z,27.59
2022-09-07T03:14:24.512Z,27.71
2022-09-07T03:15:27.547Z,27.95
2022-09-07T03:16:29.386Z,27.63
2022-09-07T03:17:31.239Z,27.54
2022-09-07T03:18:33.059Z,27.50
2022-09-07T03:19:34.835Z,27.75
2022-09-07T03:20:36.660Z,27.85
2022-09-07T03:21:38.507Z,27.36
2022-09-07T03:22:40.479Z,27.42
2022-09-07T03:23:42.350Z,27.80
2022-09-07T03:24:44.086Z,28.09
2022-09-07T03:25:48.610Z,27.39
2022-09-07T03:26:51.683Z,28.12
2022-09-07T03:27:53.704Z,27.89
2022-09-07T03:28:55.488Z,27.89
2022-09-07T03:29:58.458Z,27.61
2022-09-07T03:31:02.233Z,27.69
2022-09-07T03:32:04.123Z,27.54
2022-09-07T03:33:06.259Z,27.48
2022-09-07T03:34:08.566Z,27.39
2022-09-07T03:35:10.439Z,27.36
2022-09-07T03:36:12.370Z,28.10
2022-09-07T03:37:14.522Z,28.12
2022-09-07T03:38:16.322Z,27.34
2022-09-07T03:39:21.007Z,27.75
2022-09-07T03:40:22.864Z,27.54
2022-09-07T03:41:25.406Z,27.60
2022-09-07T03:42:27.198Z,28.08
2022-09-07T03:43:29.993Z,27.80
2022-09-07T03:44:32.639Z,27.86
2022-09-07T03:45:34.417Z,27.44
2022-09-07T03:46:36.279Z,27.94
2022-09-07T03:47:38.775Z,27.82
2022-09-07T03:48:40.572Z,27.45
2022-09-07T03:49:42.495Z,27.78
2022-09-07T03:50:44.234Z,27.48
2022-09-07T03:51:45.992Z,27.48
2022-09-07T03:52:47.886Z,27.96
2022-09-07T03:53:51.309Z,27.45
2022-09-07T03:54:53.143Z,27.46
2022-09-07T03:56:10.103Z,27.51
2022-09-07T03:57:12.111Z,27.17
2022-09-07T03:58:13.930Z,27.83
2022-09-07T03:59:15.742Z,27.37
2022-09-07T04:00:17.679Z,27.14
2022-09-07T04:01:22.690Z,27.10
2022-09-07T04:02:24.648Z,27.64
2022-09-07T04:03:27.130Z,27.12
2022-09-07T04:04:29.263Z,27.95
2022-09-07T04:05:32.481Z,27.91
2022-09-07T04:06:34.343Z,27.98
2022-09-07T04:07:36.226Z,27.33
2022-09-07T04:08:40.398Z,27.42
2022-09-07T04:09:42.419Z,27.56
2022-09-07T04:10:44.354Z,27.61
2022-09-07T04:11:46.153Z,27.62
2022-09-07T04:12:47.895Z,27.24
2022-09-07T04:13:49.678Z,27.38
2022-09-07T04:14:51.423Z,27.17
2022-09-07T04:15:54.046Z,27.11
2022-09-07T04:16:56.495Z,27.47
2022-09-07T04:17:58.523Z,27.36
2022-09-07T04:19:00.431Z,27.44
2022-09-07T04:20:04.632Z,27.85
2022-09-07T04:21:07.152Z,27.07
2022-09-07T04:22:08.979Z,27.23
2022-09-07T04:23:11.352Z,27.43
2022-09-07T04:24:14.988Z,27.82
2022-09-07T04:25:17.126Z,27.12
2022-09-07T04:26:25.410Z,27.83
2022-09-07T04:27:27.168Z,27.00
2022-09-07T04:28:29.197Z,27.05
2022-09-07T04:29:31.066Z,27.35
2022-09-07T04:30:36.177Z,27.77
2022-09-07T04:31:38.624Z,27.55
2022-09-07T04:32:40.384Z,28.01
2022-09-07T04:33:43.425Z,27.82
2022-09-07T04:34:45.271Z,27.42
2022-09-07T04:35:47.102Z,27.70
2022-09-07T04:36:48.918Z,27.92
2022-09-07T04:37:50.747Z,28.06
2022-09-07T04:39:01.577Z,27.76
2022-09-07T04:40:03.779Z,27.58
2022-09-07T04:41:09.434Z,27.88
2022-09-07T04:42:11.274Z,27.13
2022-09-07T04:43:13.280Z,27.23
2022-09-07T04:44:17.079Z,27.71
2022-09-07T04:45:19.122Z,27.63
2022-09-07T04:46:22.447Z,27.73
2022-09-07T04:47:25.386Z,27.92
2022-09-07T04:48:27.208Z,27.68
2022-09-07T04:49:29.002Z,27.17
2022-09-07T04:50:30.871Z,27.58
2022-09-07T04:51:33.134Z,28.08
2022-09-07T04:52:34.964Z,27.72
2022-09-07T04:53:38.444Z,27.45
2022-09-07T04:54:40.219Z,27.30
2022-09-07T04:55:41.992Z,27.82
2022-09-07T04:56:43.921Z,27.68
2022-09-07T04:57:49.499Z,27.59
2022-09-07T04:58:51.587Z,27.46
2022-09-07T04:59:53.471Z,27.59
2022-09-07T05:00:55.251Z,27.52
2022-09-07T05:01:57.103Z,27.30
2022-09-07T05:02:58.891Z,28.06
2022-09-07T05:04:01.855Z,27.36
2022-09-07T05:05:05.353Z,27.46
2022-09-07T05:06:08.429Z,27.33
2022-09-07T05:07:10.247Z,27.74
2022-09-07T05:08:13.211Z,27.25
2022-09-07T05:09:14.951Z,27.62
2022-09-07T05:10:16.815Z,27.66
2022-09-07T05:11:21.994Z,27.53
2022-09-07T05:12:27.168Z,27.80
2022-09-07T05:13:30.423Z,27.92
2022-09-07T05:14:32.182Z,27.97
2022-09-07T05:15:34.106Z,27.65
2022-09-07T05:16:36.094Z,27.27
2022-09-07T05:17:37.896Z,27.92
2022-09-07T05:18:39.926Z,27.86
2022-09-07T05:19:41.782Z,27.68
2022-09-07T05:20:43.791Z,27.08
2022-09-07T05:21:45.734Z,27.22
2022-09-07T05:22:48.023Z,27.31
2022-09-07T05:23:52.059Z,27.43
2022-09-07T05:24:53.797Z,27.74
2022-09-07T05:25:55.518Z,27.14
2022-09-07T05:26:59.738Z,27.30
2022-09-07T05:28:01.722Z,27.65
2022-09-07T05:31:50.000Z,26.50
2022-09-07T05:32:52.187Z,27.32
2022-09-07T05:35:18.088Z,26.78
2022-09-07T05:36:21.057Z,26.82
2022-09-07T05:37:22.879Z,26.91
2022-09-07T05:38:25.810Z,26.61
2022-09-07T05:39:28.098Z,27.11
2022-09-07T05:40:37.239Z,26.89
2022-09-07T05:41:41.939Z,27.04
2022-09-07T05:42:43.803Z,26.68
2022-09-07T05:45:08.823Z,26.33
2022-09-07T05:46:11.920Z,26.37
2022-09-07T05:47:13.981Z,26.27
2022-09-07T05:48:15.823Z,26.25
2022-09-07T05:49:17.646Z,26.43
2022-09-07T05:50:19.423Z,26.17
2022-09-07T05:51:21.317Z,26.44
2022-09-07T05:52:23.298Z,26.58
2022-09-07T05:53:25.158Z,26.70
2022-09-07T05:54:27.163Z,26.07
2022-09-07T05:55:31.783Z,26.30
2022-09-07T05:56:36.603Z,26.27
2022-09-07T05:57:38.488Z,26.75
2022-09-07T05:58:40.487Z,26.41
2022-09-07T05:59:42.258Z,26.21
2022-09-07T06:00:44.906Z,25.82
2022-09-07T06:01:46.799Z,26.13
2022-09-07T06:02:48.737Z,25.73
2022-09-07T06:03:50.572Z,26.22
2022-09-07T06:04:52.395Z,25.98
2022-09-07T06:06:23.970Z,26.13
2022-09-07T06:07:25.826Z,26.09
2022-09-07T06:08:27.812Z,25.68
2022-09-07T06:09:30.684Z,26.13
2022-09-07T06:10:44.434Z,25.92
2022-09-07T06:11:46.532Z,25.98
2022-09-07T06:12:49.298Z,26.09
2022-09-07T06:13:52.269Z,26.51
2022-09-07T06:14:54.128Z,26.36
2022-09-07T06:16:03.749Z,26.15
2022-09-07T06:17:05.768Z,25.76
2022-09-07T06:18:07.600Z,25.91
2022-09-07T06:19:09.692Z,25.75
2022-09-07T06:20:11.592Z,26.02
2022-09-07T06:21:21.566Z,25.95
2022-09-07T06:22:25.799Z,26.22
2022-09-07T06:23:31.183Z,25.96
2022-09-07T06:24:33.091Z,26.17
2022-09-07T06:25:34.859Z,25.92
2022-09-07T06:26:36.731Z,26.51
2022-09-07T06:27:38.599Z,26.42
2022-09-07T06:28:42.657Z,26.14
2022-09-07T06:29:44.504Z,26.19
2022-09-07T06:30:46.600Z,26.45
2022-09-07T06:33:10.281Z,26.39
2022-09-07T06:34:12.111Z,26.50
2022-09-07T06:35:15.032Z,26.25
2022-09-07T06:36:19.268Z,26.07
2022-09-07T06:37:21.060Z,26.24
2022-09-07T06:38:23.043Z,26.47
2022-09-07T06:39:24.800Z,25.89
2022-09-07T06:40:26.628Z,26.51
2022-09-07T06:42:55.067Z,26.00
2022-09-07T06:43:58.066Z,26.00
2022-09-07T06:44:59.810Z,26.34
2022-09-07T06:47:24.002Z,26.29
2022-09-07T06:48:26.041Z,26.18
2022-09-07T06:49:27.886Z,26.21
2022-09-07T06:50:29.789Z,26.19
2022-09-07T06:51:32.327Z,26.22
2022-09-07T06:55:23.767Z,26.02
2022-09-07T06:56:27.520Z,26.70
2022-09-07T06:57:29.346Z,26.65
2022-09-07T06:58:31.207Z,26.53
2022-09-07T06:59:33.085Z,26.44
2022-09-07T07:00:35.092Z,26.20
2022-09-07T07:01:36.996Z,26.79
2022-09-07T07:02:38.911Z,26.15
2022-09-07T07:03:41.717Z,26.38
2022-09-07T07:04:43.504Z,26.63
2022-09-07T07:05:53.893Z,26.29
2022-09-07T07:06:55.717Z,26.90
2022-09-07T07:07:58.028Z,26.48
2022-09-07T07:08:59.803Z,26.20
2022-09-07T07:10:01.690Z,26.89
2022-09-07T07:11:14.687Z,26.88
2022-09-07T07:14:18.563Z,26.48
2022-09-07T07:15:20.350Z,26.74
2022-09-07T07:16:22.196Z,26.90
2022-09-07T07:17:24.118Z,26.94
2022-09-07T07:18:25.839Z,26.38
2022-09-07T07:19:28.297Z,26.33
2022-09-07T07:20:30.260Z,26.49
2022-09-07T07:21:48.546Z,26.46
2022-09-07T07:22:53.963Z,26.86
2022-09-07T07:23:55.752Z,26.99
2022-09-07T07:24:57.535Z,26.58
2022-09-07T07:26:06.686Z,26.98
2022-09-07T07:27:08.522Z,26.41
2022-09-07T07:29:32.238Z,26.58
2022-09-07T07:30:34.037Z,26.33
2022-09-07T07:31:36.343Z,26.49
2022-09-07T07:32:38.143Z,27.07
2022-09-07T07:33:40.984Z,26.69
2022-09-07T07:34:42.734Z,26.46
2022-09-07T07:35:44.444Z,27.07
2022-09-07T07:36:46.259Z,26.90
2022-09-07T07:37:48.506Z,26.76
2022-09-07T07:38:59.835Z,26.51
2022-09-07T07:40:14.575Z,26.82
2022-09-07T07:42:41.845Z,26.50
2022-09-07T07:43:43.630Z,27.05
2022-09-07T07:44:45.556Z,26.57
2022-09-07T07:46:56.134Z,26.54
2022-09-07T07:47:58.121Z,26.94
2022-09-07T07:48:59.910Z,26.77
2022-09-07T07:51:29.036Z,27.16
2022-09-07T07:54:01.050Z,27.12
2022-09-07T07:55:42.986Z,26.81
2022-09-07T07:56:25.517Z,26.51
2022-09-07T07:57:27.268Z,26.61
2022-09-07T07:58:30.148Z,27.09
2022-09-07T07:59:32.042Z,26.93
2022-09-07T08:00:53.051Z,26.70
2022-09-07T08:01:56.011Z,27.05
2022-09-07T08:02:58.009Z,26.94
2022-09-07T08:03:59.854Z,26.74
2022-09-07T08:05:02.071Z,27.05
2022-09-07T08:06:16.823Z,26.70
2022-09-07T08:07:19.654Z,26.68
2022-09-07T08:08:23.307Z,27.36
2022-09-07T08:09:25.043Z,27.41
2022-09-07T08:10:29.783Z,27.33
2022-09-07T08:11:31.752Z,26.93
2022-09-07T08:12:33.551Z,26.73
2022-09-07T08:13:40.542Z,27.36
2022-09-07T08:14:42.759Z,27.03
2022-09-07T08:15:46.706Z,27.29
2022-09-07T08:16:48.751Z,26.96
2022-09-07T08:17:50.483Z,27.27
2022-09-07T08:18:53.751Z,27.24
2022-09-07T08:19:55.878Z,27.37
2022-09-07T08:21:02.302Z,27.33
2022-09-07T08:22:04.231Z,27.22
2022-09-07T08:23:07.546Z,27.08
2022-09-07T08:24:09.503Z,26.90
2022-09-07T08:25:11.552Z,26.97
2022-09-07T08:26:13.336Z,27.54
2022-09-07T08:27:19.544Z,27.29
2022-09-07T08:28:23.658Z,27.47
2022-09-07T08:29:25.373Z,27.28
2022-09-07T08:30:27.521Z,27.19
2022-09-07T08:31:29.367Z,26.98
2022-09-07T08:32:31.111Z,27.42
2022-09-07T08:33:35.591Z,27.71
2022-09-07T08:34:37.443Z,27.41
2022-09-07T08:35:39.331Z,27.41
2022-09-07T08:36:41.107Z,27.83
2022-09-07T08:37:42.771Z,27.07
2022-09-07T08:38:44.507Z,27.17
2022-09-07T08:39:46.313Z,27.18
2022-09-07T08:40:48.560Z,27.78
2022-09-07T08:42:06.122Z,27.38
2022-09-07T08:43:32.341Z,27.46
2022-09-07T08:44:47.658Z,27.56
2022-09-07T08:45:53.499Z,27.08
2022-09-07T08:47:00.632Z,27.52
2022-09-07T08:48:04.896Z,27.63
2022-09-07T08:49:18.933Z,27.79
2022-09-07T08:50:25.896Z,27.76
2022-09-07T08:51:47.164Z,27.51
2022-09-07T08:53:06.970Z,27.50
2022-09-07T08:54:12.579Z,27.63
2022-09-07T08:55:14.220Z,27.56
2022-09-07T08:56:24.767Z,27.43
2022-09-07T08:57:31.027Z,27.36
2022-09-07T08:58:49.742Z,27.36
2022-09-07T09:00:03.995Z,27.58
2022-09-07T09:01:33.215Z,27.15
2022-09-07T09:02:42.542Z,27.66
2022-09-07T09:05:50.746Z,27.57
2022-09-07T09:06:58.762Z,27.19
2022-09-07T09:08:27.512Z,27.84
2022-09-07T09:09:46.113Z,27.47
2022-09-07T09:10:50.757Z,27.43
2022-09-07T09:12:36.820Z,27.93
2022-09-07T09:14:17.621Z,27.55
2022-09-07T09:15:32.258Z,27.54
2022-09-07T09:16:42.868Z,27.80
2022-09-07T09:18:14.956Z,28.12
2022-09-07T09:19:35.315Z,28.03
2022-09-07T09:20:48.719Z,28.01
2022-09-07T09:22:02.223Z,28.01
2022-09-07T09:23:15.166Z,27.57
2022-09-07T09:24:19.620Z,28.13
2022-09-07T09:25:26.059Z,27.97
2022-09-07T09:26:31.022Z,27.56
2022-09-07T09:27:32.771Z,27.94
2022-09-07T09:28:34.781Z,27.75
2022-09-07T09:29:36.796Z,28.41
2022-09-07T09:30:38.603Z,27.83
2022-09-07T09:31:40.400Z,28.19
2022-09-07T09:32:44.864Z,28.30
2022-09-07T09:34:06.510Z,27.83
2022-09-07T09:35:26.479Z,28.13
2022-09-07T09:36:34.402Z,28.01
2022-09-07T09:37:38.994Z,27.73
2022-09-07T09:38:40.984Z,27.91
2022-09-07T09:39:44.610Z,27.90
2022-09-07T09:40:53.149Z,28.47
2022-09-07T09:41:58.898Z,28.36
2022-09-07T09:43:20.353Z,28.10
2022-09-07T09:44:23.514Z,28.02
2022-09-07T09:45:28.542Z,28.42
2022-09-07T09:46:35.369Z,28.64
2022-09-07T09:47:38.597Z,28.50
2022-09-07T09:48:41.771Z,28.04
2022-09-07T09:49:45.327Z,28.40
2022-09-07T09:52:43.598Z,28.35
2022-09-07T09:53:51.599Z,28.14
2022-09-07T09:54:53.988Z,28.20
2022-09-07T09:55:56.406Z,27.97
2022-09-07T09:56:58.775Z,28.25
2022-09-07T10:01:21.771Z,28.34
2022-09-07T10:04:55.938Z,28.50
2022-09-07T10:05:58.835Z,28.30
2022-09-07T10:07:05.528Z,28.54
2022-09-07T10:08:22.212Z,28.18
2022-09-07T10:09:37.978Z,28.16
2022-09-07T10:10:57.654Z,28.20
2022-09-07T10:12:08.684Z,28.72
2022-09-07T10:13:21.281Z,28.44
2022-09-07T10:14:30.111Z,28.58
2022-09-07T10:15:40.640Z,28.25
2022-09-07T10:16:44.453Z,28.29
2022-09-07T10:17:50.142Z,28.58
2022-09-07T10:18:59.542Z,28.61
2022-09-07T10:20:22.656Z,28.41
2022-09-07T10:21:31.885Z,28.46
2022-09-07T10:22:36.557Z,28.79
2022-09-07T10:23:38.455Z,28.45
2022-09-07T10:24:40.234Z,28.81
2022-09-07T10:25:45.730Z,29.13
2022-09-07T10:26:48.763Z,29.25
2022-09-07T10:28:17.064Z,29.38
2022-09-07T10:29:36.050Z,28.89
2022-09-07T10:31:15.365Z,29.16
2022-09-07T10:32:33.639Z,28.77
2022-09-07T10:35:26.292Z,29.13
2022-09-07T10:36:39.087Z,29.10
2022-09-07T10:37:43.479Z,29.34
2022-09-07T10:39:00.061Z,29.24
2022-09-07T10:40:05.249Z,29.27
2022-09-07T10:41:09.923Z,29.56
2022-09-07T10:42:25.296Z,29.43
2022-09-07T10:43:32.466Z,29.10
2022-09-07T10:44:43.027Z,29.17
2022-09-07T10:46:02.890Z,29.61
2022-09-07T10:47:53.637Z,29.54
2022-09-07T10:49:13.057Z,29.44
2022-09-07T10:50:28.826Z,29.60
2022-09-07T10:51:56.747Z,29.52
2022-09-07T10:53:40.296Z,29.40
2022-09-07T10:55:05.475Z,29.59
2022-09-07T10:56:21.806Z,29.74
2022-09-07T10:57:57.392Z,29.63
2022-09-07T10:59:07.839Z,29.51
2022-09-07T11:00:16.625Z,29.67
2022-09-07T11:01:24.404Z,29.89
2022-09-07T11:04:27.976Z,29.58
2022-09-07T11:05:47.428Z,29.67
2022-09-07T11:06:53.259Z,29.67
2022-09-07T11:07:54.953Z,29.64
2022-09-07T11:09:21.290Z,29.93
2022-09-07T11:10:29.238Z,29.63
2022-09-07T11:12:05.105Z,29.68
2022-09-07T11:13:12.258Z,29.72
2022-09-07T11:14:18.319Z,29.83
2022-09-07T11:15:26.321Z,29.93
2022-09-07T11:18:14.438Z,29.59
2022-09-07T11:19:38.070Z,29.73
2022-09-07T11:20:50.744Z,29.28
2022-09-07T11:22:04.480Z,29.32
2022-09-07T11:23:19.834Z,29.55
2022-09-07T11:24:30.715Z,30.03
2022-09-07T11:25:47.403Z,29.59
2022-09-07T11:26:55.326Z,29.36
2022-09-07T11:28:13.630Z,29.89
2022-09-07T11:29:32.394Z,29.95
2022-09-07T11:30:40.567Z,30.07
2022-09-07T11:31:46.651Z,29.53
2022-09-07T11:33:00.879Z,29.84
2022-09-07T11:34:45.168Z,29.47
2022-09-07T11:35:50.116Z,29.86
2022-09-07T11:37:01.381Z,29.63
2022-09-07T11:38:32.626Z,29.83
2022-09-07T11:39:48.781Z,29.69
2022-09-07T11:41:20.527Z,29.91
2022-09-07T11:42:46.022Z,29.59
2022-09-07T11:44:00.943Z,29.74
2022-09-07T11:45:12.754Z,29.64
2022-09-07T11:46:34.013Z,29.94
2022-09-07T11:47:42.483Z,30.28
2022-09-07T11:48:51.351Z,30.16
2022-09-07T11:49:59.349Z,30.17
2022-09-07T11:51:08.183Z,30.04
2022-09-07T11:52:34.621Z,30.41
2022-09-07T11:53:42.813Z,30.17
2022-09-07T11:54:54.027Z,30.23
2022-09-07T11:56:10.343Z,30.00
2022-09-07T11:57:14.959Z,30.50
2022-09-07T11:58:26.307Z,30.37
2022-09-07T12:00:12.225Z,30.19
2022-09-07T12:02:01.375Z,29.97
2022-09-07T12:03:30.665Z,30.11
2022-09-07T12:05:01.289Z,30.05
2022-09-07T12:06:24.945Z,29.87
2022-09-07T12:07:41.096Z,30.32
2022-09-07T12:08:42.800Z,29.70
2022-09-07T12:10:19.679Z,30.45
2022-09-07T12:11:36.518Z,30.09
2022-09-07T12:12:46.880Z,29.97
2022-09-07T12:14:18.962Z,30.56
2022-09-07T12:15:34.387Z,30.29
2022-09-07T12:16:58.086Z,30.45
2022-09-07T12:18:17.270Z,29.78
2022-09-07T12:19:24.943Z,29.72
2022-09-07T12:20:42.403Z,29.97
2022-09-07T12:21:53.143Z,30.01
2022-09-07T12:23:00.937Z,30.49
2022-09-07T12:24:06.015Z,30.50
2022-09-07T12:25:10.352Z,30.52
2022-09-07T12:26:33.735Z,30.17
2022-09-07T12:27:35.446Z,30.18
2022-09-07T12:28:37.111Z,30.59
2022-09-07T12:29:45.282Z,29.90
2022-09-07T12:31:12.499Z,30.14
2022-09-07T12:32:57.474Z,30.30
2022-09-07T12:34:31.307Z,30.28
2022-09-07T12:35:33.522Z,29.77
2022-09-07T12:36:35.254Z,30.05
2022-09-07T12:37:39.379Z,30.27
2022-09-07T12:39:02.986Z,29.87
2022-09-07T12:40:37.368Z,29.76
2022-09-07T12:41:46.736Z,30.31
2022-09-07T12:42:49.262Z,29.90
2022-09-07T12:43:50.891Z,30.20
2022-09-07T12:45:29.723Z,29.93
2022-09-07T12:46:34.990Z,29.92
2022-09-07T12:47:36.990Z,30.14
2022-09-07T12:48:38.712Z,29.99
2022-09-07T12:49:40.459Z,30.12
2022-09-07T12:50:53.798Z,30.48
2022-09-07T12:52:16.109Z,30.09
2022-09-07T12:53:23.840Z,30.31
2022-09-07T12:54:34.932Z,30.29
2022-09-07T12:56:23.749Z,30.37
2022-09-07T12:57:49.369Z,30.10
2022-09-07T12:59:20.300Z,30.20
2022-09-07T13:00:32.226Z,30.04
2022-09-07T13:01:50.938Z,30.27
2022-09-07T13:03:53.415Z,30.31
2022-09-07T13:04:54.065Z,30.24
2022-09-07T13:06:07.719Z,30.41
2022-09-07T13:07:41.777Z,29.95
2022-09-07T13:09:20.983Z,30.37
2022-09-07T13:10:33.024Z,30.11
2022-09-07T13:11:38.391Z,30.12
2022-09-07T13:12:56.838Z,30.68
2022-09-07T13:14:18.203Z,30.40
2022-09-07T13:15:32.299Z,29.99
2022-09-07T13:18:03.529Z,30.08
2022-09-07T13:19:08.760Z,30.05
2022-09-07T13:20:10.618Z,30.38
2022-09-07T13:21:13.095Z,30.33
2022-09-07T13:22:33.355Z,30.29
2022-09-07T13:23:37.835Z,30.11
2022-09-07T13:24:53.270Z,30.69
2022-09-07T13:25:56.828Z,30.16
2022-09-07T13:27:10.892Z,30.53
2022-09-07T13:28:33.300Z,30.19
2022-09-07T13:29:41.130Z,30.15
2022-09-07T13:30:55.769Z,30.06
2022-09-07T13:32:14.082Z,30.04
2022-09-07T13:33:24.603Z,30.50
2022-09-07T13:34:32.193Z,30.40
2022-09-07T13:35:35.331Z,30.16
2022-09-07T13:36:40.570Z,30.50
2022-09-07T13:38:04.227Z,30.54
2022-09-07T13:39:14.882Z,30.43
2022-09-07T13:40:26.266Z,29.86
2022-09-07T13:41:35.775Z,30.59
2022-09-07T13:42:38.164Z,30.08
2022-09-07T13:43:40.374Z,30.28
2022-09-07T13:44:42.143Z,30.55
2022-09-07T13:45:58.241Z,30.52
2022-09-07T13:47:20.882Z,30.31
2022-09-07T13:48:47.124Z,30.11
2022-09-07T13:50:15.354Z,30.21
2022-09-07T13:51:45.746Z,30.30
2022-09-07T13:53:41.178Z,29.97
2022-09-07T13:54:48.483Z,30.05
2022-09-07T13:56:06.294Z,30.13
2022-09-07T13:57:37.907Z,30.09
2022-09-07T13:58:42.374Z,30.12
2022-09-07T13:59:47.757Z,30.33
2022-09-07T14:00:53.838Z,30.23
2022-09-07T14:01:57.190Z,30.48
2022-09-07T14:03:06.055Z,30.58
2022-09-07T14:04:22.867Z,30.30
2022-09-07T14:05:24.796Z,30.33
2022-09-07T14:06:30.330Z,30.22
2022-09-07T14:07:32.719Z,30.19
2022-09-07T14:08:39.231Z,30.38
2022-09-07T14:09:42.140Z,30.18
2022-09-07T14:10:48.909Z,30.28
2022-09-07T14:11:54.669Z,30.33
2022-09-07T14:13:02.209Z,30.25
2022-09-07T14:14:22.837Z,30.24
2022-09-07T14:15:32.538Z,30.55
2022-09-07T14:16:35.759Z,30.22
2022-09-07T14:17:37.757Z,29.81
2022-09-07T14:18:40.095Z,29.93
2022-09-07T14:19:51.605Z,30.31
2022-09-07T14:20:53.941Z,30.21
2022-09-07T14:22:11.344Z,30.04
2022-09-07T14:23:19.356Z,30.22
2022-09-07T14:24:29.599Z,30.28
2022-09-07T14:26:15.912Z,29.93
2022-09-07T14:26:53.978Z,30.18
2022-09-07T14:27:57.867Z,30.56
2022-09-07T14:29:01.518Z,30.31
2022-09-07T14:30:24.216Z,30.09
2022-09-07T14:31:26.443Z,30.23
2022-09-07T14:32:28.350Z,29.86
2022-09-07T14:33:31.223Z,29.87
2022-09-07T14:34:36.471Z,30.45
2022-09-07T14:35:40.600Z,30.50
2022-09-07T14:36:45.837Z,29.98
2022-09-07T14:37:49.324Z,29.96
2022-09-07T14:39:06.739Z,29.75
2022-09-07T14:40:23.950Z,29.71
2022-09-07T14:41:32.119Z,30.06
2022-09-07T14:42:33.876Z,30.10
2022-09-07T14:43:50.861Z,29.87
2022-09-07T14:45:18.129Z,29.94
2022-09-07T14:46:19.943Z,29.31
2022-09-07T14:47:24.484Z,29.90
2022-09-07T14:48:32.422Z,29.89
2022-09-07T14:49:36.348Z,29.77
2022-09-07T14:50:41.034Z,29.91
2022-09-07T14:51:45.121Z,29.82
2022-09-07T14:53:34.238Z,29.59
2022-09-07T14:54:34.130Z,29.57
2022-09-07T14:55:38.880Z,29.30
2022-09-07T14:56:41.697Z,29.50
2022-09-07T14:57:43.448Z,29.48
2022-09-07T14:58:45.371Z,29.65
2022-09-07T14:59:48.581Z,29.43
2022-09-07T15:02:37.332Z,29.13
2022-09-07T15:03:39.023Z,29.66
2022-09-07T15:04:40.811Z,29.15
2022-09-07T15:05:49.310Z,29.52
2022-09-07T15:07:06.338Z,29.50
2022-09-07T15:08:19.894Z,29.15
2022-09-07T15:09:34.739Z,29.53
2022-09-07T15:10:41.259Z,28.97
2022-09-07T15:11:43.439Z,29.25
2022-09-07T15:12:45.156Z,29.77
2022-09-07T15:13:55.390Z,29.44
2022-09-07T15:14:57.132Z,29.28
2022-09-07T15:16:02.466Z,29.17
2022-09-07T15:18:44.922Z,29.36
2022-09-07T15:19:47.224Z,29.27
2022-09-07T15:20:48.892Z,29.47
2022-09-07T15:21:50.755Z,29.10
2022-09-07T15:22:52.539Z,29.23
2022-09-07T15:23:55.951Z,29.16
2022-09-07T15:24:57.723Z,29.16
2022-09-07T15:25:59.561Z,29.28